Time;durP1;ratioP1;P1;durP2;ratioP2;P2;SDS_P1;SDS_P2;PMS_P1;PMS_P2;Temp;Humidity;BMP_temperature;BMP_pressure;BME280_temperature;BME280_humidity;BME280_pressure;Samples;Min_cycle;Max_cycle;Signal;HPM_P1;HPM_P2
2024/03/22 00:00:35;;;;;;;0.63;0.20;;;;;;;34.92;27.75;99935.88;7393324;19;20462;-52
2024/03/22 00:03:02;;;;;;;0.22;0.22;;;;;;;34.72;27.73;99935.56;7397714;19;20410;-52
2024/03/22 00:05:28;;;;;;;3.03;0.43;;;;;;;34.58;27.69;99942.75;7397476;19;20038;-53
2024/03/22 00:07:54;;;;;;;0.20;0.20;;;;;;;34.46;27.90;99934.16;7398350;19;20021;-52
2024/03/22 00:10:20;;;;;;;0.10;0.10;;;;;;;34.31;28.06;99929.75;7396629;19;20025;-52
2024/03/22 00:12:46;;;;;;;0.30;0.10;;;;;;;34.34;28.13;99931.38;7392655;19;20516;-52
2024/03/22 00:15:13;;;;;;;0.43;0.25;;;;;;;34.74;27.91;99937.84;7393849;19;20049;-52
2024/03/22 00:17:39;;;;;;;0.10;0.00;;;;;;;34.50;28.10;99930.75;7397102;19;20014;-51
2024/03/22 00:20:06;;;;;;;0.15;0.10;;;;;;;33.97;28.29;99933.66;7396946;19;20017;-52
2024/03/22 00:22:32;;;;;;;0.10;0.03;;;;;;;33.57;28.58;99931.38;7392695;19;20014;-52
2024/03/22 00:24:58;;;;;;;0.10;0.10;;;;;;;33.49;28.74;99930.91;7395133;19;20078;-52
2024/03/22 00:27:24;;;;;;;1.10;0.50;;;;;;;33.44;29.22;99920.53;7397599;19;20018;-52
2024/03/22 00:29:50;;;;;;;0.52;0.20;;;;;;;33.61;29.13;99926.59;7396768;19;20062;-52
2024/03/22 00:32:16;;;;;;;0.30;0.10;;;;;;;33.87;28.61;99923.69;7396253;19;20014;-52
2024/03/22 00:34:43;;;;;;;0.10;0.00;;;;;;;33.71;28.83;99926.41;7398701;19;20014;-52
2024/03/22 00:37:09;;;;;;;0.10;0.00;;;;;;;33.73;29.12;99926.53;7396684;19;20483;-52
2024/03/22 00:39:36;;;;;;;0.50;0.10;;;;;;;33.77;28.87;99926.75;7396640;19;20016;-52
2024/03/22 00:42:02;;;;;;;3.95;0.10;;;;;;;33.69;28.95;99923.41;7394798;19;20489;-52
2024/03/22 00:44:28;;;;;;;0.20;0.00;;;;;;;33.57;29.21;99914.03;7395686;19;20043;-52
2024/03/22 00:46:54;;;;;;;0.20;0.20;;;;;;;33.59;29.09;99911.31;7396548;19;20007;-51
2024/03/22 00:49:20;;;;;;;0.17;0.08;;;;;;;33.56;29.02;99924.13;7396427;19;20011;-52
2024/03/22 00:51:47;;;;;;;0.10;0.10;;;;;;;33.38;28.81;99914.38;7394528;19;20014;-52
2024/03/22 00:54:13;;;;;;;0.90;0.30;;;;;;;33.41;29.16;99916.00;7396440;19;20333;-53
2024/03/22 00:56:39;;;;;;;0.10;0.10;;;;;;;33.52;29.07;99909.44;7396060;19;20030;-52
2024/03/22 00:59:06;;;;;;;0.10;0.10;;;;;;;33.43;29.25;99921.91;7394096;19;20052;-53
2024/03/22 01:01:32;;;;;;;0.10;0.00;;;;;;;33.34;29.34;99911.25;7398258;19;20078;-52
2024/03/22 01:03:58;;;;;;;2.22;0.63;;;;;;;33.40;29.52;99917.38;7396097;19;20011;-52
2024/03/22 01:06:27;;;;;;;0.95;0.10;;;;;;;33.68;29.11;99907.47;7395495;19;20006;-52
2024/03/22 01:08:53;;;;;;;0.20;0.10;;;;;;;33.81;28.92;99903.13;7395352;19;20015;-52
2024/03/22 01:11:19;;;;;;;1.73;0.25;;;;;;;34.08;29.10;99909.72;7396532;19;20015;-52
2024/03/22 01:13:45;;;;;;;1.25;0.65;;;;;;;33.98;28.89;99906.25;7395660;19;20462;-52
2024/03/22 01:16:11;;;;;;;0.52;0.38;;;;;;;34.03;28.92;99901.47;7394426;19;20018;-52
2024/03/22 01:18:37;;;;;;;3.47;0.38;;;;;;;34.27;28.77;99902.78;7393323;19;20021;-52
2024/03/22 01:21:05;;;;;;;1.00;0.20;;;;;;;33.66;29.29;99909.50;7396544;19;20510;-52
2024/03/22 01:23:31;;;;;;;0.50;0.35;;;;;;;33.33;29.38;99901.13;7398733;19;20010;-53
2024/03/22 01:25:57;;;;;;;0.10;0.10;;;;;;;33.60;29.02;99919.31;7394734;19;20010;-52
2024/03/22 01:28:23;;;;;;;0.47;0.47;;;;;;;33.84;28.89;99927.84;7395129;19;20462;-52
2024/03/22 01:30:49;;;;;;;0.20;0.20;;;;;;;33.38;29.42;99931.69;7396073;19;20018;-52
2024/03/22 01:33:15;;;;;;;0.20;0.20;;;;;;;33.21;29.65;99929.28;7394269;19;20062;-52
2024/03/22 01:35:41;;;;;;;3.05;0.30;;;;;;;33.36;29.16;99922.94;7393336;19;20006;-52
2024/03/22 01:38:08;;;;;;;2.10;0.63;;;;;;;33.28;29.42;99916.69;7392246;19;20481;-52
2024/03/22 01:40:34;;;;;;;0.57;0.25;;;;;;;33.15;29.15;99918.13;7392427;19;20463;-51
2024/03/22 01:43:00;;;;;;;0.10;0.00;;;;;;;32.34;30.14;99935.53;7394593;19;20014;-52
2024/03/22 01:45:32;;;;;;;0.10;0.10;;;;;;;32.95;29.67;99930.59;7392786;19;20014;-52
2024/03/22 01:47:59;;;;;;;0.63;0.25;;;;;;;33.54;28.98;99921.88;7393228;19;20011;-51
2024/03/22 01:50:27;;;;;;;2.72;0.93;;;;;;;33.58;28.72;99927.88;7393561;19;20014;-52
2024/03/22 01:52:53;;;;;;;0.25;0.25;;;;;;;33.64;28.66;99941.91;7394602;19;20363;-52
2024/03/22 01:55:19;;;;;;;0.10;0.10;;;;;;;34.55;27.76;99926.69;7395207;19;20017;-51
2024/03/22 01:57:49;;;;;;;0.10;0.10;;;;;;;34.59;27.48;99938.50;7391681;19;20022;-51
2024/03/22 02:00:17;;;;;;;0.10;0.10;;;;;;;34.85;27.62;99934.81;7392145;19;20014;-51
2024/03/22 02:02:43;;;;;;;6.03;0.43;;;;;;;35.14;27.20;99927.59;7393134;19;20082;-52
2024/03/22 02:05:20;;;;;;;0.40;0.15;;;;;;;34.48;27.97;99930.63;7392717;19;20366;-51
2024/03/22 02:07:46;;;;;;;0.10;0.00;;;;;;;34.62;27.56;99931.41;7393156;19;20094;-52
2024/03/22 02:10:13;;;;;;;1.15;0.40;;;;;;;34.33;28.23;99924.09;7393963;19;20364;-51
2024/03/22 02:12:39;;;;;;;0.68;0.43;;;;;;;33.94;27.88;99934.19;7396078;19;20379;-51
2024/03/22 02:15:09;;;;;;;0.38;0.38;;;;;;;33.68;28.70;99929.84;7392735;19;20028;-51
2024/03/22 02:17:35;;;;;;;0.32;0.25;;;;;;;33.84;28.17;99922.81;7393150;19;20022;-51
2024/03/22 02:20:03;;;;;;;5.50;0.73;;;;;;;33.39;28.37;99925.31;7391618;19;20021;-51
2024/03/22 02:22:29;;;;;;;0.10;0.10;;;;;;;33.28;28.49;99929.00;7395029;19;20038;-51
2024/03/22 02:24:55;;;;;;;0.60;0.52;;;;;;;32.95;29.12;99939.25;7395364;19;20470;-51
2024/03/22 02:27:22;;;;;;;2.45;0.88;;;;;;;32.65;28.90;99956.25;7396872;19;20007;-51
2024/03/22 02:29:48;;;;;;;0.20;0.17;;;;;;;32.15;27.95;99967.50;7397503;19;20032;-51
2024/03/22 02:32:14;;;;;;;2.28;0.32;;;;;;;32.26;28.34;99961.00;7397043;19;20344;-51
2024/03/22 02:34:40;;;;;;;1.10;0.40;;;;;;;32.61;27.90;99956.00;7396717;19;20010;-51
2024/03/22 02:37:06;;;;;;;0.20;0.20;;;;;;;32.49;27.94;99955.25;7396463;19;20011;-51
2024/03/22 02:39:32;;;;;;;0.10;0.10;;;;;;;32.45;27.61;99946.31;7397391;19;20010;-51
2024/03/22 02:41:58;;;;;;;0.85;0.38;;;;;;;32.57;27.92;99947.09;7399859;19;20014;-51
2024/03/22 02:44:24;;;;;;;0.57;0.32;;;;;;;32.16;28.02;99943.09;7399280;19;20474;-51
2024/03/22 02:46:50;;;;;;;2.75;0.30;;;;;;;32.18;28.20;99943.19;7399793;19;20006;-51
2024/03/22 02:49:16;;;;;;;0.22;0.22;;;;;;;32.28;28.11;99943.81;7400048;19;20455;-51
2024/03/22 02:51:42;;;;;;;0.47;0.40;;;;;;;32.30;28.14;99949.72;7400015;19;20494;-51
2024/03/22 02:54:08;;;;;;;0.28;0.22;;;;;;;32.46;28.27;99938.44;7399276;19;20762;-51
2024/03/22 02:56:34;;;;;;;0.10;0.10;;;;;;;33.21;26.98;99929.28;7404485;19;20018;-51
2024/03/22 02:59:00;;;;;;;4.38;0.43;;;;;;;32.35;28.17;99916.88;7396910;19;20011;-51
2024/03/22 03:01:27;;;;;;;1.88;0.45;;;;;;;32.38;28.29;99915.59;7399856;19;20027;-51
2024/03/22 03:03:53;;;;;;;0.10;0.10;;;;;;;32.54;28.02;99910.09;7399220;19;20363;-51
2024/03/22 03:06:19;;;;;;;0.73;0.20;;;;;;;33.25;27.35;99912.19;7399743;19;20014;-51
2024/03/22 03:08:46;;;;;;;14.60;0.70;;;;;;;33.41;27.03;99913.13;7399690;19;20035;-51
2024/03/22 03:11:14;;;;;;;3.28;0.20;;;;;;;33.10;27.20;99904.09;7400074;19;20014;-51
2024/03/22 03:13:40;;;;;;;4.30;0.50;;;;;;;32.54;27.84;99919.53;7398218;19;20007;-51
2024/03/22 03:16:06;;;;;;;0.10;0.10;;;;;;;32.50;27.69;99909.88;7399034;19;20018;-51
2024/03/22 03:18:32;;;;;;;0.15;0.15;;;;;;;32.24;27.62;99911.88;7397834;19;20047;-52
2024/03/22 03:20:58;;;;;;;0.20;0.20;;;;;;;32.52;27.81;99919.41;7398591;19;20014;-52
2024/03/22 03:23:25;;;;;;;0.30;0.20;;;;;;;32.48;27.79;99916.28;7402225;19;20477;-52
2024/03/22 03:25:51;;;;;;;0.32;0.30;;;;;;;32.21;27.76;99915.22;7398210;19;20112;-52
2024/03/22 03:28:18;;;;;;;0.93;0.40;;;;;;;31.75;28.26;99913.06;7398885;19;20070;-52
2024/03/22 03:30:44;;;;;;;0.10;0.10;;;;;;;31.55;28.34;99912.50;7398217;19;20413;-51
2024/03/22 03:33:10;;;;;;;0.17;0.17;;;;;;;31.59;28.27;99912.00;7398462;19;20014;-52
2024/03/22 03:35:36;;;;;;;0.20;0.20;;;;;;;31.26;28.59;99901.25;7400151;19;20446;-52
2024/03/22 03:38:02;;;;;;;0.22;0.20;;;;;;;31.00;29.03;99902.38;7396979;19;20365;-52
2024/03/22 03:40:28;;;;;;;0.52;0.52;;;;;;;30.94;29.17;99901.22;7398291;19;20122;-52
2024/03/22 03:42:54;;;;;;;0.50;0.40;;;;;;;31.28;28.79;99912.88;7398411;19;20026;-52
2024/03/22 03:45:21;;;;;;;0.10;0.10;;;;;;;31.01;29.07;99897.38;7397610;19;20553;-52
2024/03/22 03:47:47;;;;;;;0.25;0.20;;;;;;;30.98;29.33;99892.84;7397955;19;20011;-52
2024/03/22 03:50:13;;;;;;;1.40;0.30;;;;;;;31.02;29.09;99885.25;7397607;19;20485;-53
2024/03/22 03:52:39;;;;;;;0.13;0.10;;;;;;;31.03;29.22;99886.78;7399986;19;20025;-52
2024/03/22 03:55:05;;;;;;;0.65;0.52;;;;;;;31.18;29.04;99886.34;7399460;19;20014;-52
2024/03/22 03:57:31;;;;;;;0.13;0.13;;;;;;;30.88;29.10;99892.94;7397189;19;20354;-52
2024/03/22 03:59:57;;;;;;;0.57;0.15;;;;;;;31.84;28.35;99880.47;7397638;19;20021;-52
2024/03/22 04:02:23;;;;;;;0.10;0.10;;;;;;;31.86;28.24;99877.75;7397537;19;20014;-53
2024/03/22 04:04:52;;;;;;;3.65;0.65;;;;;;;31.28;28.73;99871.84;7397295;19;20097;-53
2024/03/22 04:07:20;;;;;;;9.63;0.40;;;;;;;31.61;28.59;99880.47;7395638;19;20021;-53
2024/03/22 04:09:46;;;;;;;1.20;0.35;;;;;;;31.61;28.52;99875.47;7397788;19;20411;-53
2024/03/22 04:12:13;;;;;;;0.63;0.45;;;;;;;31.58;27.99;99875.97;7396520;19;20080;-53
2024/03/22 04:14:39;;;;;;;0.10;0.10;;;;;;;31.64;28.64;99876.34;7397582;19;20350;-53
2024/03/22 04:17:05;;;;;;;0.10;0.10;;;;;;;31.88;28.08;99875.00;7397435;19;20043;-52
2024/03/22 04:19:31;;;;;;;0.30;0.10;;;;;;;32.04;28.40;99876.03;7394381;19;20358;-53
2024/03/22 04:21:57;;;;;;;5.88;0.50;;;;;;;31.98;28.17;99867.75;7397815;19;20117;-53
2024/03/22 04:24:23;;;;;;;3.60;0.22;;;;;;;31.99;28.11;99868.50;7396707;19;20007;-53
2024/03/22 04:26:49;;;;;;;0.82;0.82;;;;;;;32.14;28.11;99856.47;7396811;19;20014;-52
2024/03/22 04:29:15;;;;;;;0.70;0.70;;;;;;;32.23;28.43;99864.22;7395972;19;20355;-53
2024/03/22 04:31:42;;;;;;;0.38;0.38;;;;;;;32.90;27.01;99861.09;7395601;19;20018;-53
2024/03/22 04:34:08;;;;;;;0.32;0.32;;;;;;;32.67;27.60;99861.19;7397171;19;20029;-53
2024/03/22 04:36:34;;;;;;;0.20;0.10;;;;;;;32.36;27.71;99854.94;7395609;19;20010;-53
2024/03/22 04:39:00;;;;;;;0.10;0.10;;;;;;;32.14;27.93;99859.34;7394456;19;20035;-53
2024/03/22 04:41:26;;;;;;;13.73;0.75;;;;;;;32.42;27.60;99860.34;7395933;19;20018;-53
2024/03/22 04:43:52;;;;;;;0.25;0.25;;;;;;;32.50;27.59;99855.84;7395788;19;20003;-53
2024/03/22 04:46:18;;;;;;;0.30;0.20;;;;;;;32.61;27.40;99855.06;7395483;19;20045;-52
2024/03/22 04:48:45;;;;;;;0.28;0.22;;;;;;;32.61;27.44;99845.66;7396087;19;20375;-52
2024/03/22 04:51:11;;;;;;;0.20;0.20;;;;;;;32.60;27.49;99850.66;7395345;19;20014;-53
2024/03/22 04:53:37;;;;;;;0.30;0.30;;;;;;;32.68;27.39;99856.16;7399770;19;20109;-52
2024/03/22 04:56:04;;;;;;;1.08;0.40;;;;;;;32.80;27.16;99854.75;7398897;19;20014;-52
2024/03/22 04:58:30;;;;;;;12.18;0.60;;;;;;;32.74;27.27;99847.88;7395653;19;20015;-53
2024/03/22 05:00:57;;;;;;;2.53;0.65;;;;;;;33.08;26.80;99858.53;7395816;19;20043;-53
2024/03/22 05:03:23;;;;;;;7.53;0.82;;;;;;;33.04;26.83;99852.53;7395540;19;20047;-53
2024/03/22 05:05:50;;;;;;;7.95;0.63;;;;;;;32.72;27.05;99842.75;7395183;19;20011;-53
2024/03/22 05:08:17;;;;;;;0.60;0.40;;;;;;;33.06;26.88;99849.00;7395182;19;20015;-52
2024/03/22 05:10:43;;;;;;;0.10;0.10;;;;;;;32.48;27.22;99852.06;7393602;19;20010;-52
2024/03/22 05:13:09;;;;;;;9.10;1.13;;;;;;;32.56;27.01;99850.41;7395104;19;20018;-52
2024/03/22 05:15:35;;;;;;;1.00;0.20;;;;;;;33.26;26.50;99850.19;7393762;19;20011;-53
2024/03/22 05:18:01;;;;;;;4.03;0.90;;;;;;;32.62;27.00;99841.38;7394829;19;20014;-52
2024/03/22 05:20:27;;;;;;;0.30;0.28;;;;;;;32.25;27.02;99844.16;7399878;19;20029;-53
2024/03/22 05:22:54;;;;;;;0.20;0.20;;;;;;;32.17;27.50;99850.22;7393001;19;20023;-53
2024/03/22 05:25:21;;;;;;;0.10;0.10;;;;;;;32.16;27.31;99847.97;7393851;19;20010;-52
2024/03/22 05:27:47;;;;;;;2.17;0.65;;;;;;;32.16;27.27;99850.84;7394242;19;20014;-52
2024/03/22 05:30:13;;;;;;;0.88;0.47;;;;;;;32.79;26.36;99850.34;7394502;19;20076;-53
2024/03/22 05:32:40;;;;;;;0.88;0.52;;;;;;;32.55;26.96;99848.91;7395135;19;20482;-52
2024/03/22 05:35:07;;;;;;;0.55;0.28;;;;;;;33.34;26.19;99856.41;7393679;19;20022;-52
2024/03/22 05:37:36;;;;;;;0.17;0.17;;;;;;;33.48;26.17;99852.16;7392847;19;20466;-52
2024/03/22 05:40:04;;;;;;;1.35;0.47;;;;;;;33.93;25.56;99858.28;7394626;19;20041;-50
2024/03/22 05:42:30;;;;;;;2.45;0.40;;;;;;;34.32;25.38;99858.97;7393719;19;20406;-50
2024/03/22 05:44:57;;;;;;;8.65;0.55;;;;;;;34.55;24.82;99854.34;7394374;19;20014;-50
2024/03/22 05:47:23;;;;;;;0.20;0.20;;;;;;;34.46;24.91;99852.44;7393557;19;20478;-51
2024/03/22 05:49:49;;;;;;;0.20;0.20;;;;;;;34.49;24.94;99859.81;7393967;19;20378;-51
2024/03/22 05:52:15;;;;;;;0.40;0.28;;;;;;;34.61;25.18;99861.19;7395358;19;20039;-51
2024/03/22 05:54:41;;;;;;;0.98;0.68;;;;;;;34.58;24.96;99853.84;7393847;19;20018;-51
2024/03/22 05:57:07;;;;;;;1.63;0.90;;;;;;;34.11;25.55;99862.16;7393984;19;20017;-51
2024/03/22 05:59:33;;;;;;;6.72;1.75;;;;;;;34.18;25.18;99854.56;7391909;19;20017;-51
2024/03/22 06:02:00;;;;;;;6.28;0.75;;;;;;;33.86;25.19;99853.56;7393565;19;20509;-51
2024/03/22 06:04:26;;;;;;;0.73;0.13;;;;;;;33.74;25.42;99858.69;7393548;19;20466;-51
2024/03/22 06:06:53;;;;;;;0.40;0.40;;;;;;;33.57;25.57;99874.38;7393362;19;20042;-51
2024/03/22 06:09:24;;;;;;;1.45;1.35;;;;;;;33.23;25.86;99869.50;7393375;19;20078;-51
2024/03/22 06:11:50;;;;;;;0.30;0.20;;;;;;;32.98;25.85;99872.38;7393855;19;20018;-51
2024/03/22 06:14:17;;;;;;;12.73;1.65;;;;;;;32.72;26.49;99868.69;7394123;19;20528;-51
2024/03/22 06:16:43;;;;;;;8.40;1.08;;;;;;;32.78;25.99;99876.94;7393397;19;20034;-51
2024/03/22 06:19:10;;;;;;;6.78;0.52;;;;;;;32.69;25.89;99867.06;7396119;19;20015;-51
2024/03/22 06:21:36;;;;;;;0.20;0.20;;;;;;;33.24;25.62;99876.03;7392794;19;20007;-51
2024/03/22 06:24:03;;;;;;;2.35;0.73;;;;;;;33.63;25.11;99873.22;7392722;19;20032;-51
2024/03/22 06:26:29;;;;;;;0.47;0.47;;;;;;;33.53;25.24;99874.13;7393240;19;20006;-51
2024/03/22 06:28:55;;;;;;;0.95;0.90;;;;;;;33.38;25.75;99874.72;7391893;19;20044;-51
2024/03/22 06:31:22;;;;;;;6.97;1.48;;;;;;;32.77;25.98;99881.19;7391320;19;20045;-51
2024/03/22 06:33:48;;;;;;;12.93;1.60;;;;;;;32.59;26.15;99877.25;7394046;19;20031;-52
2024/03/22 06:36:14;;;;;;;5.10;0.88;;;;;;;32.29;26.21;99881.91;7392420;19;20015;-51
2024/03/22 06:38:40;;;;;;;5.45;1.70;;;;;;;31.89;26.50;99883.00;7391448;19;20015;-51
2024/03/22 06:41:06;;;;;;;16.70;2.72;;;;;;;31.57;26.57;99885.97;7394278;19;20022;-51
2024/03/22 06:43:33;;;;;;;4.20;1.23;;;;;;;31.43;27.03;99885.78;7392504;19;20015;-51
2024/03/22 06:45:59;;;;;;;3.70;2.33;;;;;;;31.49;26.64;99894.09;7392877;19;20514;-50
2024/03/22 06:48:25;;;;;;;5.22;1.30;;;;;;;32.58;25.75;99890.91;7392882;19;20006;-50
2024/03/22 06:50:51;;;;;;;8.80;1.15;;;;;;;32.53;25.56;99897.81;7393285;19;20011;-50
2024/03/22 06:53:17;;;;;;;2.30;1.75;;;;;;;32.73;25.47;99890.38;7395793;19;20459;-50
2024/03/22 06:55:44;;;;;;;11.60;2.63;;;;;;;32.79;25.17;99902.28;7396008;19;20011;-50
2024/03/22 06:58:10;;;;;;;8.93;1.23;;;;;;;32.83;25.24;99890.97;7391543;19;20070;-50
2024/03/22 07:00:36;;;;;;;0.35;0.35;;;;;;;32.24;25.48;99888.81;7390021;19;20007;-51
2024/03/22 07:03:02;;;;;;;10.20;1.75;;;;;;;32.16;25.55;99886.16;7392568;19;20010;-51
2024/03/22 07:05:29;;;;;;;2.55;1.35;;;;;;;32.36;25.43;99880.88;7391988;19;20043;-51
2024/03/22 07:07:57;;;;;;;0.10;0.10;;;;;;;32.74;24.96;99888.25;7390892;19;20013;-51
2024/03/22 07:10:27;;;;;;;1.60;0.93;;;;;;;32.19;25.35;99881.28;7394079;19;20036;-51
2024/03/22 07:12:54;;;;;;;7.50;3.00;;;;;;;32.50;24.88;99887.56;7398436;19;20018;-51
2024/03/22 07:15:23;;;;;;;4.10;1.38;;;;;;;32.73;24.70;99889.63;7399589;19;20015;-52
2024/03/22 07:17:50;;;;;;;0.60;0.40;;;;;;;32.85;24.38;99896.84;7397898;19;20034;-51
2024/03/22 07:20:16;;;;;;;21.55;2.50;;;;;;;32.41;25.37;99902.06;7399029;19;20014;-51
2024/03/22 07:22:42;;;;;;;12.98;1.08;;;;;;;32.95;25.08;99902.47;7401895;19;20006;-51
2024/03/22 07:25:11;;;;;;;2.65;1.40;;;;;;;32.39;24.67;99914.25;7400070;19;20030;-51
2024/03/22 07:27:37;;;;;;;10.88;0.47;;;;;;;32.07;25.20;99915.88;7399033;19;20066;-51
2024/03/22 07:30:04;;;;;;;8.52;0.98;;;;;;;32.08;25.37;99907.97;7398956;19;20039;-51
2024/03/22 07:32:31;;;;;;;4.32;1.27;;;;;;;31.92;25.51;99906.94;7397833;19;20007;-51
2024/03/22 07:34:58;;;;;;;1.55;0.55;;;;;;;32.35;24.87;99905.34;7398189;19;20021;-51
2024/03/22 07:37:24;;;;;;;4.93;1.30;;;;;;;32.80;24.98;99889.38;7397636;19;20011;-51
2024/03/22 07:39:50;;;;;;;13.82;1.45;;;;;;;31.99;25.52;99908.84;7398794;19;20019;-50
2024/03/22 07:42:17;;;;;;;0.68;0.65;;;;;;;32.15;24.93;99906.97;7397474;19;20014;-50
2024/03/22 07:44:43;;;;;;;7.88;1.58;;;;;;;32.22;25.28;99908.09;7396200;19;20070;-50
2024/03/22 07:47:09;;;;;;;8.10;0.85;;;;;;;32.23;24.58;99913.22;7397874;19;20038;-51
2024/03/22 07:49:36;;;;;;;10.05;0.47;;;;;;;32.40;24.93;99906.34;7399696;19;20458;-51
2024/03/22 07:52:02;;;;;;;16.80;1.13;;;;;;;32.28;25.09;99905.59;7398495;19;20018;-51
2024/03/22 07:54:29;;;;;;;1.75;1.65;;;;;;;32.27;25.34;99916.34;7398974;19;20007;-51
2024/03/22 07:56:55;;;;;;;6.30;0.52;;;;;;;32.93;24.76;99899.47;7397414;19;20014;-51
2024/03/22 07:59:21;;;;;;;6.70;1.10;;;;;;;32.29;25.04;99907.09;7393476;19;20019;-51
2024/03/22 08:01:48;;;;;;;0.65;0.25;;;;;;;32.06;25.37;99916.50;7398321;19;20021;-51
2024/03/22 08:04:14;;;;;;;11.02;0.88;;;;;;;32.13;25.42;99924.16;7397518;19;20062;-51
2024/03/22 08:06:40;;;;;;;0.85;0.30;;;;;;;32.05;25.47;99923.66;7396845;19;20030;-51
2024/03/22 08:09:07;;;;;;;5.07;0.47;;;;;;;32.14;25.73;99931.41;7397194;19;20516;-51
2024/03/22 08:11:33;;;;;;;0.93;0.63;;;;;;;31.97;25.62;99920.22;7396753;19;20021;-51
2024/03/22 08:14:03;;;;;;;1.45;0.57;;;;;;;31.82;25.66;99930.09;7397619;19;20420;-51
2024/03/22 08:16:30;;;;;;;15.27;1.08;;;;;;;31.83;25.64;99930.84;7396804;19;20062;-51
2024/03/22 08:18:56;;;;;;;2.03;0.65;;;;;;;31.97;25.23;99923.88;7395671;19;20019;-51
2024/03/22 08:21:23;;;;;;;0.52;0.50;;;;;;;32.18;25.57;99929.53;7392694;19;20033;-52
2024/03/22 08:23:52;;;;;;;7.63;0.40;;;;;;;32.20;25.53;99926.03;7400785;19;20015;-51
2024/03/22 08:26:19;;;;;;;0.55;0.35;;;;;;;32.07;25.44;99938.19;7398500;19;20006;-51
2024/03/22 08:28:48;;;;;;;2.20;1.08;;;;;;;32.45;24.90;99937.66;7397216;19;20018;-51
2024/03/22 08:31:14;;;;;;;4.63;0.60;;;;;;;32.37;24.79;99942.19;7396702;19;20232;-51
2024/03/22 08:33:41;;;;;;;7.53;0.82;;;;;;;32.44;25.05;99933.31;7396001;19;20076;-51
2024/03/22 08:36:07;;;;;;;6.30;1.15;;;;;;;32.39;25.12;99934.41;7395694;19;20019;-51
2024/03/22 08:38:33;;;;;;;6.38;1.20;;;;;;;32.28;25.01;99935.19;7397186;19;20010;-52
2024/03/22 08:40:59;;;;;;;1.00;0.40;;;;;;;32.46;24.80;99932.66;7396232;19;20010;-51
2024/03/22 08:43:27;;;;;;;8.68;1.67;;;;;;;32.06;24.79;99936.66;7397182;19;20011;-52
2024/03/22 08:45:53;;;;;;;3.35;1.02;;;;;;;32.35;24.46;99928.41;7395230;19;20096;-51
2024/03/22 08:48:20;;;;;;;5.25;1.70;;;;;;;32.64;24.60;99928.78;7395206;19;20011;-51
2024/03/22 08:50:46;;;;;;;9.32;0.50;;;;;;;32.28;24.98;99934.41;7396633;19;20070;-52
2024/03/22 08:53:12;;;;;;;0.38;0.38;;;;;;;32.44;24.89;99935.44;7398549;19;20070;-51
2024/03/22 08:55:38;;;;;;;3.05;1.00;;;;;;;32.57;24.75;99929.03;7397970;19;20462;-51
2024/03/22 08:58:04;;;;;;;11.60;0.57;;;;;;;32.53;25.03;99923.78;7395310;19;20010;-51
2024/03/22 09:00:31;;;;;;;4.47;1.67;;;;;;;32.61;24.88;99937.94;7395474;19;20085;-51
2024/03/22 09:02:57;;;;;;;1.55;0.82;;;;;;;32.76;24.90;99926.63;7397968;19;20014;-50
2024/03/22 09:05:23;;;;;;;1.85;0.30;;;;;;;32.59;24.60;99924.16;7395861;19;20007;-51
2024/03/22 09:07:50;;;;;;;7.03;1.50;;;;;;;32.70;24.66;99929.13;7394793;19;20018;-51
2024/03/22 09:10:16;;;;;;;5.97;0.55;;;;;;;32.49;24.48;99937.19;7394128;19;20015;-52
2024/03/22 09:12:42;;;;;;;5.68;1.33;;;;;;;32.45;24.86;99936.91;7394924;19;20014;-52
2024/03/22 09:15:08;;;;;;;6.07;0.90;;;;;;;32.19;23.88;99938.94;7397955;19;20034;-52
2024/03/22 09:17:34;;;;;;;4.03;2.17;;;;;;;33.32;23.94;99932.13;7395303;19;20018;-51
2024/03/22 09:20:01;;;;;;;1.95;0.50;;;;;;;33.39;23.88;99921.66;7394625;19;20074;-52
2024/03/22 09:22:27;;;;;;;2.22;0.77;;;;;;;33.40;24.13;99931.81;7396875;19;20033;-52
2024/03/22 09:24:53;;;;;;;6.70;0.70;;;;;;;33.56;24.05;99929.91;7393403;19;20014;-52
2024/03/22 09:27:19;;;;;;;6.60;1.05;;;;;;;33.47;24.29;99930.78;7398034;19;20439;-53
2024/03/22 09:29:45;;;;;;;8.85;0.75;;;;;;;33.68;23.75;99936.34;7395221;19;20403;-53
2024/03/22 09:32:11;;;;;;;17.70;1.45;;;;;;;33.59;23.92;99928.63;7394032;19;20014;-52
2024/03/22 09:34:37;;;;;;;3.45;0.85;;;;;;;33.66;23.72;99939.13;7394125;19;20066;-52
2024/03/22 09:37:03;;;;;;;2.20;1.35;;;;;;;33.64;23.47;99927.47;7395552;19;20024;-52
2024/03/22 09:39:31;;;;;;;0.82;0.35;;;;;;;33.47;23.81;99934.44;7393273;19;20066;-53
2024/03/22 09:41:59;;;;;;;1.95;0.63;;;;;;;34.38;23.17;99927.19;7394907;19;20510;-52
2024/03/22 09:44:27;;;;;;;1.17;0.50;;;;;;;34.77;22.67;99927.84;7394319;19;20911;-52
2024/03/22 09:46:56;;;;;;;4.03;0.80;;;;;;;34.80;22.99;99935.25;7393640;19;20827;-52
2024/03/22 09:49:23;;;;;;;6.03;0.68;;;;;;;34.42;23.27;99953.44;7395656;19;20007;-52
2024/03/22 09:51:51;;;;;;;3.47;0.32;;;;;;;34.69;23.08;99941.91;7393719;19;20091;-52
2024/03/22 09:54:17;;;;;;;9.57;0.40;;;;;;;34.76;22.71;99932.16;7393912;19;20018;-52
2024/03/22 09:56:47;;;;;;;2.05;0.55;;;;;;;34.24;23.41;99933.72;7393984;19;20010;-52
2024/03/22 09:59:14;;;;;;;2.42;0.80;;;;;;;34.30;22.76;99939.09;7394171;19;20026;-52
2024/03/22 10:01:41;;;;;;;2.60;0.85;;;;;;;34.47;23.36;99947.25;7393422;19;20007;-53
2024/03/22 10:04:09;;;;;;;4.25;0.73;;;;;;;34.57;22.78;99941.25;7393964;19;20010;-52
2024/03/22 10:06:35;;;;;;;6.60;0.80;;;;;;;34.72;22.74;99937.69;7393034;19;20355;-51
2024/03/22 10:09:04;;;;;;;2.72;1.00;;;;;;;34.86;22.79;99944.25;7391811;19;20010;-51
2024/03/22 10:11:30;;;;;;;1.00;0.52;;;;;;;34.91;22.49;99943.06;7394021;19;20014;-51
2024/03/22 10:13:56;;;;;;;0.80;0.65;;;;;;;34.79;22.40;99933.75;7393494;19;20455;-51
2024/03/22 10:16:23;;;;;;;0.30;0.30;;;;;;;34.84;22.35;99947.78;7393808;19;20011;-51
2024/03/22 10:18:49;;;;;;;1.20;0.65;;;;;;;34.79;22.66;99933.75;7391509;19;20014;-51
2024/03/22 10:21:18;;;;;;;0.22;0.15;;;;;;;34.41;22.89;99938.25;7392046;19;20017;-52
2024/03/22 10:23:46;;;;;;;4.35;0.70;;;;;;;35.08;22.74;99942.53;7397592;19;20462;-51
2024/03/22 10:26:13;;;;;;;3.17;0.70;;;;;;;34.88;22.36;99942.22;7391871;19;20090;-52
2024/03/22 10:28:46;;;;;;;10.60;1.02;;;;;;;34.87;22.34;99939.97;7392132;19;20033;-51
2024/03/22 10:31:13;;;;;;;2.55;0.50;;;;;;;35.46;21.93;99941.53;7390659;19;20466;-51
2024/03/22 10:33:45;;;;;;;1.45;0.43;;;;;;;35.02;22.37;99936.44;7392421;19;20082;-51
2024/03/22 10:36:12;;;;;;;0.73;0.65;;;;;;;35.26;22.67;99940.53;7395371;19;20357;-51
2024/03/22 10:38:40;;;;;;;5.68;1.15;;;;;;;35.79;21.77;99935.94;7391343;19;20471;-52
2024/03/22 10:41:06;;;;;;;8.13;0.68;;;;;;;36.11;21.72;99939.63;7392101;19;20056;-51
2024/03/22 10:43:33;;;;;;;3.30;0.40;;;;;;;35.92;21.35;99931.47;7391986;19;20018;-52
2024/03/22 10:46:03;;;;;;;0.20;0.13;;;;;;;36.19;21.14;99940.00;7401881;19;20045;-53
2024/03/22 10:48:31;;;;;;;1.00;0.38;;;;;;;35.29;21.78;99933.44;7398828;19;20011;-52
2024/03/22 10:51:02;;;;;;;1.70;0.98;;;;;;;35.28;21.74;99942.78;7400262;19;20011;-53
2024/03/22 10:53:32;;;;;;;4.10;0.30;;;;;;;35.30;21.72;99929.16;7403521;19;20383;-52
2024/03/22 10:56:00;;;;;;;0.20;0.15;;;;;;;35.63;21.56;99903.28;7402568;19;20085;-52
2024/03/22 10:58:27;;;;;;;13.23;1.30;;;;;;;35.06;21.42;99916.34;7400214;19;20015;-52
2024/03/22 11:00:55;;;;;;;0.10;0.10;;;;;;;34.87;21.30;99919.69;7399091;19;20011;-52
2024/03/22 11:03:23;;;;;;;1.65;0.32;;;;;;;35.33;21.43;99922.06;7399360;19;20021;-52
2024/03/22 11:05:56;;;;;;;4.28;0.50;;;;;;;35.43;21.12;99899.34;7399494;19;20081;-52
2024/03/22 11:08:24;;;;;;;0.90;0.25;;;;;;;36.56;20.73;99913.41;7398427;19;20013;-52
2024/03/22 11:10:51;;;;;;;1.85;0.55;;;;;;;36.55;20.24;99911.91;7401698;19;20041;-51
2024/03/22 11:13:17;;;;;;;6.75;0.50;;;;;;;36.53;20.46;99914.72;7398638;19;20404;-52
2024/03/22 11:15:43;;;;;;;0.28;0.22;;;;;;;36.66;20.77;99901.50;7398856;19;20014;-52
2024/03/22 11:18:10;;;;;;;2.10;0.22;;;;;;;37.15;20.39;99902.94;7397788;19;20368;-51
2024/03/22 11:20:37;;;;;;;1.85;0.25;;;;;;;37.22;19.45;99898.88;7399030;19;20014;-52
2024/03/22 11:23:06;;;;;;;9.63;0.55;;;;;;;37.31;19.45;99896.28;7402579;19;20017;-52
2024/03/22 11:25:33;;;;;;;8.68;0.45;;;;;;;37.57;19.31;99901.03;7398689;19;20405;-52
2024/03/22 11:28:01;;;;;;;0.55;0.45;;;;;;;37.16;19.64;99903.69;7398155;19;20447;-53